sensor_id;sensor_type;location;lat;lon;timestamp;temperature;humidity
65239;SHT30;51827;51.186;6.926;2022-09-09T00:00:17;22.99;61.86
65239;SHT30;51827;51.186;6.926;2022-09-09T00:04:41;22.99;61.94
65239;SHT30;51827;51.186;6.926;2022-09-09T00:07:25;22.96;61.90
65239;SHT30;51827;51.186;6.926;2022-09-09T00:10:29;22.96;61.94
65239;SHT30;51827;51.186;6.926;2022-09-09T00:12:42;22.99;61.94
65239;SHT30;51827;51.186;6.926;2022-09-09T00:13:55;22.98;61.96
65239;SHT30;51827;51.186;6.926;2022-09-09T00:15:14;22.99;61.92
65239;SHT30;51827;51.186;6.926;2022-09-09T00:16:21;22.99;62.00
65239;SHT30;51827;51.186;6.926;2022-09-09T00:21:11;22.99;62.02
65239;SHT30;51827;51.186;6.926;2022-09-09T00:23:54;22.98;61.97
65239;SHT30;51827;51.186;6.926;2022-09-09T00:24:55;22.98;61.99
65239;SHT30;51827;51.186;6.926;2022-09-09T00:25:58;22.99;62.04
65239;SHT30;51827;51.186;6.926;2022-09-09T00:27:07;22.99;62.01
65239;SHT30;51827;51.186;6.926;2022-09-09T00:28:25;22.98;62.03
65239;SHT30;51827;51.186;6.926;2022-09-09T00:29:33;22.99;62.02
65239;SHT30;51827;51.186;6.926;2022-09-09T00:30:36;22.99;62.00
65239;SHT30;51827;51.186;6.926;2022-09-09T00:31:36;23.00;62.02
65239;SHT30;51827;51.186;6.926;2022-09-09T00:32:37;23.00;62.06
65239;SHT30;51827;51.186;6.926;2022-09-09T00:33:37;23.00;62.08
65239;SHT30;51827;51.186;6.926;2022-09-09T00:34:46;22.99;62.04
65239;SHT30;51827;51.186;6.926;2022-09-09T00:35:49;23.00;62.00
65239;SHT30;51827;51.186;6.926;2022-09-09T00:36:52;22.98;62.06
65239;SHT30;51827;51.186;6.926;2022-09-09T00:38:13;23.00;62.05
65239;SHT30;51827;51.186;6.926;2022-09-09T00:39:44;22.96;62.05
65239;SHT30;51827;51.186;6.926;2022-09-09T00:42:27;22.98;62.11
65239;SHT30;51827;51.186;6.926;2022-09-09T00:43:35;22.99;62.06
65239;SHT30;51827;51.186;6.926;2022-09-09T00:46:04;22.98;62.12
65239;SHT30;51827;51.186;6.926;2022-09-09T00:50:35;22.99;62.04
65239;SHT30;51827;51.186;6.926;2022-09-09T00:55:46;22.98;62.14
65239;SHT30;51827;51.186;6.926;2022-09-09T00:57:18;22.95;62.15
65239;SHT30;51827;51.186;6.926;2022-09-09T00:58:25;22.98;62.13
65239;SHT30;51827;51.186;6.926;2022-09-09T00:59:56;22.99;62.20
65239;SHT30;51827;51.186;6.926;2022-09-09T01:01:04;22.99;62.17
65239;SHT30;51827;51.186;6.926;2022-09-09T01:02:32;22.98;62.21
65239;SHT30;51827;51.186;6.926;2022-09-09T01:03:47;22.96;62.19
65239;SHT30;51827;51.186;6.926;2022-09-09T01:04:54;22.95;62.20
65239;SHT30;51827;51.186;6.926;2022-09-09T01:07:18;22.95;62.26
65239;SHT30;51827;51.186;6.926;2022-09-09T01:10:53;22.96;62.32
65239;SHT30;51827;51.186;6.926;2022-09-09T01:13:34;22.98;62.31
65239;SHT30;51827;51.186;6.926;2022-09-09T01:15:38;22.95;62.31
65239;SHT30;51827;51.186;6.926;2022-09-09T01:16:40;22.95;62.33
65239;SHT30;51827;51.186;6.926;2022-09-09T01:18:57;22.95;62.37
65239;SHT30;51827;51.186;6.926;2022-09-09T01:24:08;22.96;62.38
65239;SHT30;51827;51.186;6.926;2022-09-09T01:26:40;22.96;62.44
65239;SHT30;51827;51.186;6.926;2022-09-09T01:27:42;22.95;62.49
65239;SHT30;51827;51.186;6.926;2022-09-09T01:28:46;22.96;62.38
65239;SHT30;51827;51.186;6.926;2022-09-09T01:29:46;22.99;62.33
65239;SHT30;51827;51.186;6.926;2022-09-09T01:30:47;22.98;62.38
65239;SHT30;51827;51.186;6.926;2022-09-09T01:32:57;22.96;62.47
65239;SHT30;51827;51.186;6.926;2022-09-09T01:33:58;22.96;62.46
65239;SHT30;51827;51.186;6.926;2022-09-09T01:34:58;22.95;62.44
65239;SHT30;51827;51.186;6.926;2022-09-09T01:36:16;22.98;62.47
65239;SHT30;51827;51.186;6.926;2022-09-09T01:37:17;22.95;62.50
65239;SHT30;51827;51.186;6.926;2022-09-09T01:38:17;22.96;62.44
65239;SHT30;51827;51.186;6.926;2022-09-09T01:39:18;22.95;62.45
65239;SHT30;51827;51.186;6.926;2022-09-09T01:40:19;22.98;62.47
65239;SHT30;51827;51.186;6.926;2022-09-09T01:41:20;22.96;62.46
65239;SHT30;51827;51.186;6.926;2022-09-09T01:42:23;22.95;62.52
65239;SHT30;51827;51.186;6.926;2022-09-09T01:43:25;22.94;62.54
65239;SHT30;51827;51.186;6.926;2022-09-09T01:44:26;22.95;62.48
65239;SHT30;51827;51.186;6.926;2022-09-09T01:45:27;22.99;62.42
65239;SHT30;51827;51.186;6.926;2022-09-09T01:46:30;23.00;62.42
65239;SHT30;51827;51.186;6.926;2022-09-09T01:47:33;22.98;62.50
65239;SHT30;51827;51.186;6.926;2022-09-09T01:48:34;22.96;62.49
65239;SHT30;51827;51.186;6.926;2022-09-09T01:49:34;22.96;62.50
65239;SHT30;51827;51.186;6.926;2022-09-09T01:50:34;22.96;62.52
65239;SHT30;51827;51.186;6.926;2022-09-09T01:51:36;22.96;62.57
65239;SHT30;51827;51.186;6.926;2022-09-09T01:52:38;22.96;62.55
65239;SHT30;51827;51.186;6.926;2022-09-09T01:53:40;22.98;62.56
65239;SHT30;51827;51.186;6.926;2022-09-09T01:54:44;22.98;62.57
65239;SHT30;51827;51.186;6.926;2022-09-09T02:01:06;22.95;62.62
65239;SHT30;51827;51.186;6.926;2022-09-09T02:02:13;22.95;62.63
65239;SHT30;51827;51.186;6.926;2022-09-09T02:04:36;22.96;62.68
65239;SHT30;51827;51.186;6.926;2022-09-09T02:06:40;22.96;62.66
65239;SHT30;51827;51.186;6.926;2022-09-09T02:07:42;22.95;62.71
65239;SHT30;51827;51.186;6.926;2022-09-09T02:08:48;22.94;62.71
65239;SHT30;51827;51.186;6.926;2022-09-09T02:09:53;22.96;62.73
65239;SHT30;51827;51.186;6.926;2022-09-09T02:11:20;22.94;62.69
65239;SHT30;51827;51.186;6.926;2022-09-09T02:12:23;22.95;62.69
65239;SHT30;51827;51.186;6.926;2022-09-09T02:13:25;22.95;62.69
65239;SHT30;51827;51.186;6.926;2022-09-09T02:14:29;22.94;62.68
65239;SHT30;51827;51.186;6.926;2022-09-09T02:15:35;22.94;62.68
65239;SHT30;51827;51.186;6.926;2022-09-09T02:16:53;22.92;62.73
65239;SHT30;51827;51.186;6.926;2022-09-09T02:17:57;22.95;62.68
65239;SHT30;51827;51.186;6.926;2022-09-09T02:19:18;22.96;62.72
65239;SHT30;51827;51.186;6.926;2022-09-09T02:20:20;22.94;62.70
65239;SHT30;51827;51.186;6.926;2022-09-09T02:21:23;22.95;62.72
65239;SHT30;51827;51.186;6.926;2022-09-09T02:22:26;22.98;62.69
65239;SHT30;51827;51.186;6.926;2022-09-09T02:23:28;22.95;62.67
65239;SHT30;51827;51.186;6.926;2022-09-09T02:24:32;22.95;62.70
65239;SHT30;51827;51.186;6.926;2022-09-09T02:25:34;22.94;62.70
65239;SHT30;51827;51.186;6.926;2022-09-09T02:26:40;22.92;62.73
65239;SHT30;51827;51.186;6.926;2022-09-09T02:27:43;22.92;62.71
65239;SHT30;51827;51.186;6.926;2022-09-09T02:28:46;22.95;62.75
65239;SHT30;51827;51.186;6.926;2022-09-09T02:29:49;22.92;62.73
65239;SHT30;51827;51.186;6.926;2022-09-09T02:30:50;22.95;62.71
65239;SHT30;51827;51.186;6.926;2022-09-09T02:31:52;22.95;62.72
65239;SHT30;51827;51.186;6.926;2022-09-09T02:32:55;22.95;62.73
65239;SHT30;51827;51.186;6.926;2022-09-09T02:34:07;22.94;62.75
65239;SHT30;51827;51.186;6.926;2022-09-09T02:35:12;22.94;62.77
65239;SHT30;51827;51.186;6.926;2022-09-09T02:36:14;22.94;62.73
65239;SHT30;51827;51.186;6.926;2022-09-09T02:37:18;22.91;62.80
65239;SHT30;51827;51.186;6.926;2022-09-09T02:38:24;22.92;62.80
65239;SHT30;51827;51.186;6.926;2022-09-09T02:39:26;22.94;62.78
65239;SHT30;51827;51.186;6.926;2022-09-09T02:40:26;22.95;62.74
65239;SHT30;51827;51.186;6.926;2022-09-09T02:41:32;22.92;62.73
65239;SHT30;51827;51.186;6.926;2022-09-09T02:42:44;22.92;62.74
65239;SHT30;51827;51.186;6.926;2022-09-09T02:43:45;22.91;62.77
65239;SHT30;51827;51.186;6.926;2022-09-09T02:44:46;22.92;62.70
65239;SHT30;51827;51.186;6.926;2022-09-09T02:46:15;22.94;62.70
65239;SHT30;51827;51.186;6.926;2022-09-09T02:47:42;22.94;62.69
65239;SHT30;51827;51.186;6.926;2022-09-09T02:48:55;22.92;62.71
65239;SHT30;51827;51.186;6.926;2022-09-09T02:51:24;22.91;62.70
65239;SHT30;51827;51.186;6.926;2022-09-09T02:53:59;22.91;62.64
65239;SHT30;51827;51.186;6.926;2022-09-09T02:55:10;22.92;62.66
65239;SHT30;51827;51.186;6.926;2022-09-09T02:56:15;22.92;62.66
65239;SHT30;51827;51.186;6.926;2022-09-09T02:58:22;22.88;62.63
65239;SHT30;51827;51.186;6.926;2022-09-09T02:59:26;22.91;62.62
65239;SHT30;51827;51.186;6.926;2022-09-09T03:00:27;22.94;62.63
65239;SHT30;51827;51.186;6.926;2022-09-09T03:01:28;22.91;62.59
65239;SHT30;51827;51.186;6.926;2022-09-09T03:02:28;22.91;62.62
65239;SHT30;51827;51.186;6.926;2022-09-09T03:03:28;22.91;62.61
65239;SHT30;51827;51.186;6.926;2022-09-09T03:04:31;22.89;62.62
65239;SHT30;51827;51.186;6.926;2022-09-09T03:05:32;22.92;62.59
65239;SHT30;51827;51.186;6.926;2022-09-09T03:06:32;22.89;62.60
65239;SHT30;51827;51.186;6.926;2022-09-09T03:07:37;22.91;62.57
65239;SHT30;51827;51.186;6.926;2022-09-09T03:08:40;22.91;62.55
65239;SHT30;51827;51.186;6.926;2022-09-09T03:09:40;22.94;62.49
65239;SHT30;51827;51.186;6.926;2022-09-09T03:10:41;22.92;62.49
65239;SHT30;51827;51.186;6.926;2022-09-09T03:11:41;22.92;62.54
65239;SHT30;51827;51.186;6.926;2022-09-09T03:12:41;22.92;62.51
65239;SHT30;51827;51.186;6.926;2022-09-09T03:13:41;22.88;62.54
65239;SHT30;51827;51.186;6.926;2022-09-09T03:14:42;22.89;62.50
65239;SHT30;51827;51.186;6.926;2022-09-09T03:15:42;22.94;62.48
65239;SHT30;51827;51.186;6.926;2022-09-09T03:16:44;22.94;62.45
65239;SHT30;51827;51.186;6.926;2022-09-09T03:17:44;22.92;62.42
65239;SHT30;51827;51.186;6.926;2022-09-09T03:18:45;22.92;62.44
65239;SHT30;51827;51.186;6.926;2022-09-09T03:19:45;22.92;62.44
65239;SHT30;51827;51.186;6.926;2022-09-09T03:20:46;22.92;62.42
65239;SHT30;51827;51.186;6.926;2022-09-09T03:21:47;22.92;62.42
65239;SHT30;51827;51.186;6.926;2022-09-09T03:22:47;22.89;62.43
65239;SHT30;51827;51.186;6.926;2022-09-09T03:23:47;22.92;62.45
65239;SHT30;51827;51.186;6.926;2022-09-09T03:24:48;22.88;62.42
65239;SHT30;51827;51.186;6.926;2022-09-09T03:25:49;22.89;62.42
65239;SHT30;51827;51.186;6.926;2022-09-09T03:26:49;22.91;62.45
65239;SHT30;51827;51.186;6.926;2022-09-09T03:27:50;22.89;62.44
65239;SHT30;51827;51.186;6.926;2022-09-09T03:28:50;22.89;62.44
65239;SHT30;51827;51.186;6.926;2022-09-09T03:29:58;22.89;62.44
65239;SHT30;51827;51.186;6.926;2022-09-09T03:31:05;22.88;62.38
65239;SHT30;51827;51.186;6.926;2022-09-09T03:32:05;22.92;62.37
65239;SHT30;51827;51.186;6.926;2022-09-09T03:33:06;22.89;62.37
65239;SHT30;51827;51.186;6.926;2022-09-09T03:34:06;22.91;62.40
65239;SHT30;51827;51.186;6.926;2022-09-09T03:35:07;22.89;62.39
65239;SHT30;51827;51.186;6.926;2022-09-09T03:36:07;22.91;62.35
65239;SHT30;51827;51.186;6.926;2022-09-09T03:37:11;22.89;62.37
65239;SHT30;51827;51.186;6.926;2022-09-09T03:38:11;22.89;62.35
65239;SHT30;51827;51.186;6.926;2022-09-09T03:39:11;22.91;62.35
65239;SHT30;51827;51.186;6.926;2022-09-09T03:40:13;22.92;62.32
65239;SHT30;51827;51.186;6.926;2022-09-09T03:41:13;22.91;62.32
65239;SHT30;51827;51.186;6.926;2022-09-09T03:42:15;22.91;62.26
65239;SHT30;51827;51.186;6.926;2022-09-09T03:43:17;22.91;62.27
65239;SHT30;51827;51.186;6.926;2022-09-09T03:44:18;22.91;62.25
65239;SHT30;51827;51.186;6.926;2022-09-09T03:45:18;22.91;62.25
65239;SHT30;51827;51.186;6.926;2022-09-09T03:46:20;22.92;62.27
65239;SHT30;51827;51.186;6.926;2022-09-09T03:47:21;22.95;62.24
65239;SHT30;51827;51.186;6.926;2022-09-09T03:48:21;22.92;62.25
65239;SHT30;51827;51.186;6.926;2022-09-09T03:49:21;22.92;62.25
65239;SHT30;51827;51.186;6.926;2022-09-09T03:50:21;22.96;62.27
65239;SHT30;51827;51.186;6.926;2022-09-09T03:51:22;22.92;62.24
65239;SHT30;51827;51.186;6.926;2022-09-09T03:52:22;22.95;62.21
65239;SHT30;51827;51.186;6.926;2022-09-09T03:53:23;22.95;62.21
65239;SHT30;51827;51.186;6.926;2022-09-09T03:54:24;22.94;62.22
65239;SHT30;51827;51.186;6.926;2022-09-09T03:55:25;22.92;62.23
65239;SHT30;51827;51.186;6.926;2022-09-09T03:56:25;22.94;62.26
65239;SHT30;51827;51.186;6.926;2022-09-09T03:57:25;22.92;62.22
65239;SHT30;51827;51.186;6.926;2022-09-09T03:58:26;22.92;62.24
65239;SHT30;51827;51.186;6.926;2022-09-09T03:59:27;22.94;62.33
65239;SHT30;51827;51.186;6.926;2022-09-09T04:00:27;22.92;62.36
65239;SHT30;51827;51.186;6.926;2022-09-09T04:01:28;22.95;62.39
65239;SHT30;51827;51.186;6.926;2022-09-09T04:02:28;22.95;62.33
65239;SHT30;51827;51.186;6.926;2022-09-09T04:03:29;22.95;62.37
65239;SHT30;51827;51.186;6.926;2022-09-09T04:04:35;22.96;62.39
65239;SHT30;51827;51.186;6.926;2022-09-09T04:05:35;22.96;62.40
65239;SHT30;51827;51.186;6.926;2022-09-09T04:06:36;22.98;62.44
65239;SHT30;51827;51.186;6.926;2022-09-09T04:07:36;22.95;62.39
65239;SHT30;51827;51.186;6.926;2022-09-09T04:08:36;22.98;62.39
65239;SHT30;51827;51.186;6.926;2022-09-09T04:09:36;22.98;62.40
65239;SHT30;51827;51.186;6.926;2022-09-09T04:10:36;22.96;62.38
65239;SHT30;51827;51.186;6.926;2022-09-09T04:11:37;22.98;62.40
65239;SHT30;51827;51.186;6.926;2022-09-09T04:12:37;22.95;62.43
65239;SHT30;51827;51.186;6.926;2022-09-09T04:13:38;22.96;62.40
65239;SHT30;51827;51.186;6.926;2022-09-09T04:14:38;22.95;62.40
65239;SHT30;51827;51.186;6.926;2022-09-09T04:15:38;22.95;62.35
65239;SHT30;51827;51.186;6.926;2022-09-09T04:16:39;22.98;62.35
65239;SHT30;51827;51.186;6.926;2022-09-09T04:17:39;22.98;62.33
65239;SHT30;51827;51.186;6.926;2022-09-09T04:18:39;22.96;62.26
65239;SHT30;51827;51.186;6.926;2022-09-09T04:19:39;22.95;62.27
65239;SHT30;51827;51.186;6.926;2022-09-09T04:20:40;22.95;62.24
65239;SHT30;51827;51.186;6.926;2022-09-09T04:21:40;22.96;62.20
65239;SHT30;51827;51.186;6.926;2022-09-09T04:22:41;22.95;62.20
65239;SHT30;51827;51.186;6.926;2022-09-09T04:23:41;22.94;62.24
65239;SHT30;51827;51.186;6.926;2022-09-09T04:24:41;22.95;62.20
65239;SHT30;51827;51.186;6.926;2022-09-09T04:25:49;22.95;62.23
65239;SHT30;51827;51.186;6.926;2022-09-09T04:26:49;22.96;62.19
65239;SHT30;51827;51.186;6.926;2022-09-09T04:27:54;22.96;62.17
65239;SHT30;51827;51.186;6.926;2022-09-09T04:28:54;22.98;62.18
65239;SHT30;51827;51.186;6.926;2022-09-09T04:29:54;22.96;62.15
65239;SHT30;51827;51.186;6.926;2022-09-09T04:30:55;22.96;62.12
65239;SHT30;51827;51.186;6.926;2022-09-09T04:31:55;22.96;62.11
65239;SHT30;51827;51.186;6.926;2022-09-09T04:33:00;22.98;62.15
65239;SHT30;51827;51.186;6.926;2022-09-09T04:34:01;22.96;62.09
65239;SHT30;51827;51.186;6.926;2022-09-09T04:35:01;22.95;62.04
65239;SHT30;51827;51.186;6.926;2022-09-09T04:36:02;22.96;62.01
65239;SHT30;51827;51.186;6.926;2022-09-09T04:37:02;22.99;62.00
65239;SHT30;51827;51.186;6.926;2022-09-09T04:38:02;22.96;62.03
65239;SHT30;51827;51.186;6.926;2022-09-09T04:39:03;22.95;62.04
65239;SHT30;51827;51.186;6.926;2022-09-09T04:40:03;22.94;62.06
65239;SHT30;51827;51.186;6.926;2022-09-09T04:41:04;22.94;62.08
65239;SHT30;51827;51.186;6.926;2022-09-09T04:42:05;22.92;62.09
65239;SHT30;51827;51.186;6.926;2022-09-09T04:43:05;22.92;62.11
65239;SHT30;51827;51.186;6.926;2022-09-09T04:44:05;22.92;62.10
65239;SHT30;51827;51.186;6.926;2022-09-09T04:45:06;22.95;62.08
65239;SHT30;51827;51.186;6.926;2022-09-09T04:46:06;22.92;62.04
65239;SHT30;51827;51.186;6.926;2022-09-09T04:47:07;22.91;62.06
65239;SHT30;51827;51.186;6.926;2022-09-09T04:48:07;22.91;62.05
65239;SHT30;51827;51.186;6.926;2022-09-09T04:49:08;22.92;62.07
65239;SHT30;51827;51.186;6.926;2022-09-09T04:50:08;22.96;62.08
65239;SHT30;51827;51.186;6.926;2022-09-09T04:51:11;22.92;62.03
65239;SHT30;51827;51.186;6.926;2022-09-09T04:52:12;22.92;62.06
65239;SHT30;51827;51.186;6.926;2022-09-09T04:53:12;22.91;62.07
65239;SHT30;51827;51.186;6.926;2022-09-09T04:54:12;22.92;62.06
65239;SHT30;51827;51.186;6.926;2022-09-09T04:55:13;22.89;62.06
65239;SHT30;51827;51.186;6.926;2022-09-09T04:56:15;22.88;62.07
65239;SHT30;51827;51.186;6.926;2022-09-09T04:57:15;22.88;62.09
65239;SHT30;51827;51.186;6.926;2022-09-09T04:58:16;22.92;62.08
65239;SHT30;51827;51.186;6.926;2022-09-09T04:59:16;22.89;62.05
65239;SHT30;51827;51.186;6.926;2022-09-09T05:00:16;22.89;62.03
65239;SHT30;51827;51.186;6.926;2022-09-09T05:01:19;22.91;62.01
65239;SHT30;51827;51.186;6.926;2022-09-09T05:02:19;22.92;62.02
65239;SHT30;51827;51.186;6.926;2022-09-09T05:03:20;22.91;62.01
65239;SHT30;51827;51.186;6.926;2022-09-09T05:04:20;22.89;62.02
65239;SHT30;51827;51.186;6.926;2022-09-09T05:05:24;22.89;62.08
65239;SHT30;51827;51.186;6.926;2022-09-09T05:06:27;22.91;62.04
65239;SHT30;51827;51.186;6.926;2022-09-09T05:07:27;22.91;62.01
65239;SHT30;51827;51.186;6.926;2022-09-09T05:08:27;22.89;62.00
65239;SHT30;51827;51.186;6.926;2022-09-09T05:09:27;22.89;62.03
65239;SHT30;51827;51.186;6.926;2022-09-09T05:10:28;22.88;61.99
65239;SHT30;51827;51.186;6.926;2022-09-09T05:11:30;22.89;62.01
65239;SHT30;51827;51.186;6.926;2022-09-09T05:12:30;22.88;62.00
65239;SHT30;51827;51.186;6.926;2022-09-09T05:13:31;22.88;62.03
65239;SHT30;51827;51.186;6.926;2022-09-09T05:14:31;22.91;62.02
65239;SHT30;51827;51.186;6.926;2022-09-09T05:15:31;22.88;62.03
65239;SHT30;51827;51.186;6.926;2022-09-09T05:16:31;22.88;62.04
65239;SHT30;51827;51.186;6.926;2022-09-09T05:17:32;22.89;62.00
65239;SHT30;51827;51.186;6.926;2022-09-09T05:18:32;22.86;62.03
65239;SHT30;51827;51.186;6.926;2022-09-09T05:19:32;22.88;61.95
65239;SHT30;51827;51.186;6.926;2022-09-09T05:20:32;22.89;61.95
65239;SHT30;51827;51.186;6.926;2022-09-09T05:21:33;22.91;61.91
65239;SHT30;51827;51.186;6.926;2022-09-09T05:22:33;22.92;61.92
65239;SHT30;51827;51.186;6.926;2022-09-09T05:23:34;22.91;61.91
65239;SHT30;51827;51.186;6.926;2022-09-09T05:24:34;22.89;61.92
65239;SHT30;51827;51.186;6.926;2022-09-09T05:25:35;22.89;61.94
65239;SHT30;51827;51.186;6.926;2022-09-09T05:26:35;22.92;61.91
65239;SHT30;51827;51.186;6.926;2022-09-09T05:27:35;22.91;61.92
65239;SHT30;51827;51.186;6.926;2022-09-09T05:28:36;22.91;61.91
65239;SHT30;51827;51.186;6.926;2022-09-09T05:29:36;22.89;61.92
65239;SHT30;51827;51.186;6.926;2022-09-09T05:30:36;22.89;61.94
65239;SHT30;51827;51.186;6.926;2022-09-09T05:31:36;22.89;61.94
65239;SHT30;51827;51.186;6.926;2022-09-09T05:32:37;22.88;61.93
65239;SHT30;51827;51.186;6.926;2022-09-09T05:33:37;22.88;61.97
65239;SHT30;51827;51.186;6.926;2022-09-09T05:34:37;22.86;61.99
65239;SHT30;51827;51.186;6.926;2022-09-09T05:35:37;22.88;61.97
65239;SHT30;51827;51.186;6.926;2022-09-09T05:36:38;22.86;61.97
65239;SHT30;51827;51.186;6.926;2022-09-09T05:37:38;22.85;61.99
65239;SHT30;51827;51.186;6.926;2022-09-09T05:38:42;22.85;61.97
65239;SHT30;51827;51.186;6.926;2022-09-09T05:39:42;22.86;61.92
65239;SHT30;51827;51.186;6.926;2022-09-09T05:40:47;22.86;61.94
65239;SHT30;51827;51.186;6.926;2022-09-09T05:41:47;22.88;61.90
65239;SHT30;51827;51.186;6.926;2022-09-09T05:42:47;22.88;61.96
65239;SHT30;51827;51.186;6.926;2022-09-09T05:43:48;22.86;61.87
65239;SHT30;51827;51.186;6.926;2022-09-09T05:44:48;22.86;61.92
65239;SHT30;51827;51.186;6.926;2022-09-09T05:45:58;22.86;61.88
65239;SHT30;51827;51.186;6.926;2022-09-09T05:47:02;22.86;61.88
65239;SHT30;51827;51.186;6.926;2022-09-09T05:48:02;22.85;61.92
65239;SHT30;51827;51.186;6.926;2022-09-09T05:49:03;22.85;61.95
65239;SHT30;51827;51.186;6.926;2022-09-09T05:50:04;22.88;61.93
65239;SHT30;51827;51.186;6.926;2022-09-09T05:51:05;22.86;61.98
65239;SHT30;51827;51.186;6.926;2022-09-09T05:52:05;22.86;61.94
65239;SHT30;51827;51.186;6.926;2022-09-09T05:53:05;22.88;61.89
65239;SHT30;51827;51.186;6.926;2022-09-09T05:54:05;22.86;61.90
65239;SHT30;51827;51.186;6.926;2022-09-09T05:55:06;22.86;61.94
65239;SHT30;51827;51.186;6.926;2022-09-09T05:56:12;22.84;61.95
65239;SHT30;51827;51.186;6.926;2022-09-09T05:57:12;22.84;61.95
65239;SHT30;51827;51.186;6.926;2022-09-09T05:58:13;22.85;61.96
65239;SHT30;51827;51.186;6.926;2022-09-09T05:59:13;22.86;61.94
65239;SHT30;51827;51.186;6.926;2022-09-09T06:00:14;22.86;61.91
65239;SHT30;51827;51.186;6.926;2022-09-09T06:01:25;22.85;61.97
65239;SHT30;51827;51.186;6.926;2022-09-09T06:02:25;22.85;61.94
65239;SHT30;51827;51.186;6.926;2022-09-09T06:03:26;22.85;61.95
65239;SHT30;51827;51.186;6.926;2022-09-09T06:04:26;22.85;61.97
65239;SHT30;51827;51.186;6.926;2022-09-09T06:05:26;22.85;61.95
65239;SHT30;51827;51.186;6.926;2022-09-09T06:06:30;22.81;61.96
65239;SHT30;51827;51.186;6.926;2022-09-09T06:07:34;22.82;62.00
65239;SHT30;51827;51.186;6.926;2022-09-09T06:08:35;22.85;61.99
65239;SHT30;51827;51.186;6.926;2022-09-09T06:09:36;22.81;62.00
65239;SHT30;51827;51.186;6.926;2022-09-09T06:10:36;22.84;62.00
65239;SHT30;51827;51.186;6.926;2022-09-09T06:11:38;22.84;62.00
65239;SHT30;51827;51.186;6.926;2022-09-09T06:12:39;22.82;61.96
65239;SHT30;51827;51.186;6.926;2022-09-09T06:13:43;22.82;61.97
65239;SHT30;51827;51.186;6.926;2022-09-09T06:14:43;22.84;61.99
65239;SHT30;51827;51.186;6.926;2022-09-09T06:15:51;22.82;61.97
65239;SHT30;51827;51.186;6.926;2022-09-09T06:16:51;22.82;61.96
65239;SHT30;51827;51.186;6.926;2022-09-09T06:17:55;22.84;61.99
65239;SHT30;51827;51.186;6.926;2022-09-09T06:18:56;22.86;61.97
65239;SHT30;51827;51.186;6.926;2022-09-09T06:19:57;22.85;61.99
65239;SHT30;51827;51.186;6.926;2022-09-09T06:20:59;22.85;61.98
65239;SHT30;51827;51.186;6.926;2022-09-09T06:21:59;22.82;61.93
65239;SHT30;51827;51.186;6.926;2022-09-09T06:23:00;22.86;61.91
65239;SHT30;51827;51.186;6.926;2022-09-09T06:24:00;22.84;61.88
65239;SHT30;51827;51.186;6.926;2022-09-09T06:25:01;22.84;61.93
65239;SHT30;51827;51.186;6.926;2022-09-09T06:27:17;22.84;61.93
65239;SHT30;51827;51.186;6.926;2022-09-09T06:28:18;22.82;61.95
65239;SHT30;51827;51.186;6.926;2022-09-09T06:29:18;22.84;61.96
65239;SHT30;51827;51.186;6.926;2022-09-09T06:30:18;22.82;61.93
65239;SHT30;51827;51.186;6.926;2022-09-09T06:31:23;22.81;61.96
65239;SHT30;51827;51.186;6.926;2022-09-09T06:32:26;22.84;61.95
65239;SHT30;51827;51.186;6.926;2022-09-09T06:33:31;22.81;61.95
65239;SHT30;51827;51.186;6.926;2022-09-09T06:34:31;22.84;61.95
65239;SHT30;51827;51.186;6.926;2022-09-09T06:35:31;22.82;61.94
65239;SHT30;51827;51.186;6.926;2022-09-09T06:36:33;22.84;61.99
65239;SHT30;51827;51.186;6.926;2022-09-09T06:37:34;22.81;61.98
65239;SHT30;51827;51.186;6.926;2022-09-09T06:38:34;22.81;61.99
65239;SHT30;51827;51.186;6.926;2022-09-09T06:39:34;22.82;61.93
65239;SHT30;51827;51.186;6.926;2022-09-09T06:40:35;22.82;61.95
65239;SHT30;51827;51.186;6.926;2022-09-09T06:41:35;22.82;61.91
65239;SHT30;51827;51.186;6.926;2022-09-09T06:42:35;22.84;61.92
65239;SHT30;51827;51.186;6.926;2022-09-09T06:43:35;22.84;61.92
65239;SHT30;51827;51.186;6.926;2022-09-09T06:44:36;22.86;61.88
65239;SHT30;51827;51.186;6.926;2022-09-09T06:45:36;22.85;61.89
65239;SHT30;51827;51.186;6.926;2022-09-09T06:46:37;22.84;61.91
65239;SHT30;51827;51.186;6.926;2022-09-09T06:47:37;22.84;61.89
65239;SHT30;51827;51.186;6.926;2022-09-09T06:48:43;22.84;61.92
65239;SHT30;51827;51.186;6.926;2022-09-09T06:49:44;22.84;61.93
65239;SHT30;51827;51.186;6.926;2022-09-09T06:50:44;22.84;61.95
65239;SHT30;51827;51.186;6.926;2022-09-09T06:51:44;22.84;61.95
65239;SHT30;51827;51.186;6.926;2022-09-09T06:52:46;22.82;61.94
65239;SHT30;51827;51.186;6.926;2022-09-09T06:53:47;22.81;61.95
65239;SHT30;51827;51.186;6.926;2022-09-09T06:54:47;22.81;61.95
65239;SHT30;51827;51.186;6.926;2022-09-09T06:55:47;22.84;61.95
65239;SHT30;51827;51.186;6.926;2022-09-09T06:56:48;22.82;61.92
65239;SHT30;51827;51.186;6.926;2022-09-09T06:57:48;22.84;61.91
65239;SHT30;51827;51.186;6.926;2022-09-09T06:58:50;22.81;61.95
65239;SHT30;51827;51.186;6.926;2022-09-09T06:59:50;22.82;61.97
65239;SHT30;51827;51.186;6.926;2022-09-09T07:00:51;22.81;61.97
65239;SHT30;51827;51.186;6.926;2022-09-09T07:01:51;22.81;61.95
65239;SHT30;51827;51.186;6.926;2022-09-09T07:02:51;22.79;61.95
65239;SHT30;51827;51.186;6.926;2022-09-09T07:03:54;22.78;61.99
65239;SHT30;51827;51.186;6.926;2022-09-09T07:04:55;22.79;61.97
65239;SHT30;51827;51.186;6.926;2022-09-09T07:05:56;22.78;61.97
65239;SHT30;51827;51.186;6.926;2022-09-09T07:06:56;22.78;61.99
65239;SHT30;51827;51.186;6.926;2022-09-09T07:07:56;22.78;61.95
65239;SHT30;51827;51.186;6.926;2022-09-09T07:08:59;22.78;62.02
65239;SHT30;51827;51.186;6.926;2022-09-09T07:10:00;22.79;62.03
65239;SHT30;51827;51.186;6.926;2022-09-09T07:11:07;22.78;62.02
65239;SHT30;51827;51.186;6.926;2022-09-09T07:12:08;22.78;62.06
65239;SHT30;51827;51.186;6.926;2022-09-09T07:13:08;22.76;62.03
65239;SHT30;51827;51.186;6.926;2022-09-09T07:14:08;22.81;62.04
65239;SHT30;51827;51.186;6.926;2022-09-09T07:15:09;22.76;62.01
65239;SHT30;51827;51.186;6.926;2022-09-09T07:16:12;22.78;62.01
65239;SHT30;51827;51.186;6.926;2022-09-09T07:17:13;22.73;62.05
65239;SHT30;51827;51.186;6.926;2022-09-09T07:18:13;22.75;62.03
65239;SHT30;51827;51.186;6.926;2022-09-09T07:19:14;22.75;62.04
65239;SHT30;51827;51.186;6.926;2022-09-09T07:20:14;22.75;62.05
65239;SHT30;51827;51.186;6.926;2022-09-09T07:21:15;22.76;62.06
65239;SHT30;51827;51.186;6.926;2022-09-09T07:22:15;22.76;61.99
65239;SHT30;51827;51.186;6.926;2022-09-09T07:23:15;22.75;62.04
65239;SHT30;51827;51.186;6.926;2022-09-09T07:24:15;22.76;62.06
65239;SHT30;51827;51.186;6.926;2022-09-09T07:25:16;22.76;62.05
65239;SHT30;51827;51.186;6.926;2022-09-09T07:26:18;22.75;62.01